createdAt,value
2019-04-16T00:02:27.846Z,50.59
2019-04-16T00:05:06.241Z,50.33
2019-04-16T00:07:40.540Z,50.08
2019-04-16T00:10:17.657Z,52.15
2019-04-16T00:13:08.145Z,49.50
2019-04-16T00:15:41.375Z,50.57
2019-04-16T00:18:18.516Z,49.18
2019-04-16T00:21:10.062Z,50.64
2019-04-16T00:23:46.674Z,49.44
2019-04-16T00:26:19.387Z,52.10
2019-04-16T00:28:51.931Z,49.33
2019-04-16T00:31:24.652Z,51.15
2019-04-16T00:33:57.427Z,50.33
2019-04-16T00:36:29.997Z,50.98
2019-04-16T00:39:02.512Z,50.26
2019-04-16T00:41:36.891Z,51.38
2019-04-16T00:44:09.664Z,49.74
2019-04-16T00:46:42.181Z,51.21
2019-04-16T00:49:14.808Z,50.40
2019-04-16T00:51:47.598Z,50.55
2019-04-16T00:54:20.351Z,51.07
2019-04-16T00:56:52.883Z,51.24
2019-04-16T00:59:25.431Z,50.67
2019-04-16T01:01:58.215Z,51.69
2019-04-16T01:04:30.975Z,50.76
2019-04-16T01:07:05.010Z,51.29
2019-04-16T01:09:37.802Z,50.01
2019-04-16T01:12:10.570Z,51.09
2019-04-16T01:14:43.256Z,49.55
2019-04-16T01:17:17.371Z,51.41
2019-04-16T01:19:50.051Z,49.38
2019-04-16T01:22:22.534Z,51.03
2019-04-16T01:24:55.281Z,49.45
2019-04-16T01:27:35.465Z,51.95
2019-04-16T01:30:10.701Z,50.05
2019-04-16T01:32:53.205Z,52.28
2019-04-16T01:35:43.588Z,49.50
2019-04-16T01:38:20.641Z,51.96
2019-04-16T01:40:54.995Z,49.54
2019-04-16T01:43:27.575Z,52.17
2019-04-16T01:46:01.477Z,50.17
2019-04-16T01:48:38.678Z,52.40
2019-04-16T01:51:08.874Z,49.80
2019-04-16T01:53:41.495Z,52.61
2019-04-16T01:56:17.271Z,49.80
2019-04-16T01:58:49.806Z,52.33
2019-04-16T02:01:22.538Z,49.69
2019-04-16T02:03:55.256Z,51.92
2019-04-16T02:06:27.814Z,49.47
2019-04-16T02:09:02.996Z,52.28
2019-04-16T02:11:38.859Z,49.18
2019-04-16T02:14:10.649Z,51.93
2019-04-16T02:16:43.161Z,50.39
2019-04-16T02:19:15.641Z,52.60
2019-04-16T02:21:48.166Z,49.81
2019-04-16T02:24:20.681Z,51.95
2019-04-16T02:26:54.810Z,50.06
2019-04-16T02:29:30.556Z,52.33
2019-04-16T02:32:01.948Z,49.53
2019-04-16T02:34:34.676Z,50.69
2019-04-16T02:37:07.462Z,49.16
2019-04-16T02:39:48.984Z,51.99
2019-04-16T02:42:14.866Z,49.02
2019-04-16T02:44:50.196Z,51.65
2019-04-16T02:47:22.276Z,49.54
2019-04-16T02:49:56.834Z,52.22
2019-04-16T02:52:31.604Z,49.90
2019-04-16T02:55:22.152Z,50.32
2019-04-16T02:58:15.546Z,48.33
2019-04-16T03:01:06.000Z,50.37
2019-04-16T03:03:43.535Z,48.21
2019-04-16T03:06:16.475Z,49.33
2019-04-16T03:08:49.416Z,48.49
2019-04-16T03:11:21.931Z,50.58
2019-04-16T03:13:58.235Z,50.17
2019-04-16T03:16:47.106Z,49.75
2019-04-16T03:19:24.606Z,50.22
2019-04-16T03:21:59.079Z,48.72
2019-04-16T03:24:31.851Z,51.16
2019-04-16T03:27:05.886Z,48.97
2019-04-16T03:29:38.660Z,50.99
2019-04-16T03:32:14.306Z,48.57
2019-04-16T03:34:45.806Z,50.98
2019-04-16T03:37:18.622Z,48.73
2019-04-16T03:39:51.406Z,50.22
2019-04-16T03:42:24.504Z,48.01
2019-04-16T03:44:58.816Z,50.59
2019-04-16T03:47:31.385Z,48.56
2019-04-16T03:50:05.100Z,51.65
2019-04-16T03:52:40.922Z,49.55
2019-04-16T03:55:12.176Z,52.30
2019-04-16T03:57:44.946Z,49.90
2019-04-16T04:00:17.928Z,52.30
2019-04-16T04:02:54.220Z,49.88
2019-04-16T04:05:24.933Z,52.20
2019-04-16T04:07:57.524Z,49.13
2019-04-16T04:10:31.337Z,51.88
2019-04-16T04:13:05.026Z,49.80
2019-04-16T04:15:38.141Z,52.51
2019-04-16T04:18:12.596Z,49.91
2019-04-16T04:20:49.616Z,51.64
2019-04-16T04:23:19.631Z,49.32
2019-04-16T04:25:52.271Z,50.83
2019-04-16T04:28:24.976Z,49.56
2019-04-16T04:31:00.395Z,49.61
2019-04-16T04:33:40.954Z,49.15
2019-04-16T04:36:12.478Z,50.79
2019-04-16T04:38:45.145Z,49.24
2019-04-16T04:41:19.889Z,49.85
2019-04-16T04:43:51.941Z,51.48
2019-04-16T04:46:24.601Z,50.46
2019-04-16T04:49:00.033Z,50.80
2019-04-16T04:51:31.451Z,51.54
2019-04-16T04:54:04.241Z,50.36
2019-04-16T04:56:36.837Z,51.64
2019-04-16T04:59:09.321Z,51.09
2019-04-16T05:01:42.728Z,52.11
2019-04-16T05:04:19.479Z,51.30
2019-04-16T05:07:04.866Z,51.21
2019-04-16T05:09:37.761Z,51.64
2019-04-16T05:12:10.229Z,51.58
2019-04-16T05:14:57.114Z,52.72
2019-04-16T05:17:29.925Z,52.43
2019-04-16T05:20:02.290Z,52.70
2019-04-16T05:22:34.886Z,53.14
2019-04-16T05:25:08.056Z,53.22
2019-04-16T05:27:41.882Z,53.36
2019-04-16T05:30:19.961Z,53.48
2019-04-16T05:32:49.551Z,53.55
2019-04-16T05:35:22.061Z,53.93
2019-04-16T05:37:54.490Z,54.14
2019-04-16T05:40:28.023Z,54.09
2019-04-16T05:43:01.265Z,54.26
2019-04-16T05:45:34.500Z,54.33
2019-04-16T05:48:08.427Z,54.01
2019-04-16T05:50:41.006Z,54.37
2019-04-16T05:53:13.951Z,53.59
2019-04-16T05:55:50.871Z,54.00
2019-04-16T05:58:23.739Z,53.75
2019-04-16T06:01:03.696Z,54.17
2019-04-16T06:03:36.281Z,53.60
2019-04-16T06:06:09.138Z,53.60
2019-04-16T06:08:42.051Z,53.35
2019-04-16T06:11:27.658Z,53.06
2019-04-16T06:13:56.526Z,53.32
2019-04-16T06:16:33.806Z,53.25
2019-04-16T06:19:08.538Z,52.81
2019-04-16T06:22:00.686Z,53.09
2019-04-16T06:24:36.125Z,53.07
2019-04-16T06:27:13.456Z,52.25
2019-04-16T06:30:04.418Z,51.55
2019-04-16T06:32:50.450Z,52.95
2019-04-16T06:35:43.339Z,52.36
2019-04-16T06:38:19.616Z,52.37
2019-04-16T06:41:07.411Z,52.30
2019-04-16T06:43:45.107Z,52.30
2019-04-16T06:46:39.478Z,52.03
2019-04-16T06:49:18.765Z,52.06
2019-04-16T06:52:12.455Z,52.73
2019-04-16T06:54:55.162Z,52.66
2019-04-16T06:57:33.474Z,52.00
2019-04-16T07:00:26.953Z,52.45
2019-04-16T07:03:03.054Z,51.47
2019-04-16T07:05:37.407Z,50.74
2019-04-16T07:08:36.530Z,51.30
2019-04-16T07:11:01.707Z,51.40
2019-04-16T07:13:41.974Z,52.26
2019-04-16T07:16:12.245Z,52.31
2019-04-16T07:18:46.620Z,52.35
2019-04-16T07:21:25.216Z,49.45
2019-04-16T07:23:58.587Z,50.16
2019-04-16T07:26:31.351Z,51.15
2019-04-16T07:29:08.576Z,50.04
2019-04-16T07:31:42.713Z,48.51
2019-04-16T07:34:43.440Z,50.31
2019-04-16T07:37:33.168Z,48.37
2019-04-16T07:40:41.336Z,49.12
2019-04-16T07:43:32.856Z,48.45
2019-04-16T07:46:15.656Z,48.04
2019-04-16T07:48:54.685Z,48.68
2019-04-16T07:51:49.276Z,46.52
2019-04-16T07:54:57.235Z,45.22
2019-04-16T07:57:47.076Z,46.42
2019-04-16T08:00:21.296Z,46.84
2019-04-16T08:03:12.155Z,46.07
2019-04-16T08:06:02.180Z,41.64
2019-04-16T08:08:34.657Z,44.78
2019-04-16T08:11:16.398Z,43.17
2019-04-16T08:13:51.917Z,39.93
2019-04-16T08:16:47.567Z,42.13
2019-04-16T08:19:16.269Z,43.08
2019-04-16T08:22:06.550Z,39.56
2019-04-16T08:24:43.297Z,38.04
2019-04-16T08:27:19.195Z,38.03
2019-04-16T08:29:52.156Z,39.39
2019-04-16T08:32:27.116Z,38.46
2019-04-16T08:34:59.496Z,38.12
2019-04-16T08:37:49.641Z,37.28
2019-04-16T08:40:31.337Z,35.80
2019-04-16T08:43:03.756Z,34.74
2019-04-16T08:45:54.455Z,37.85
2019-04-16T08:48:48.923Z,34.85
2019-04-16T08:51:30.747Z,36.54
2019-04-16T08:53:57.898Z,36.80
2019-04-16T08:56:30.235Z,30.86
2019-04-16T08:59:19.837Z,31.61
2019-04-16T09:02:07.580Z,32.59
2019-04-16T09:04:55.415Z,32.38
2019-04-16T09:07:40.295Z,30.93
2019-04-16T09:10:23.297Z,31.33
2019-04-16T09:13:03.257Z,32.99
2019-04-16T09:15:36.536Z,33.94
2019-04-16T09:18:22.636Z,30.86
2019-04-16T09:20:57.656Z,29.83
2019-04-16T09:23:30.136Z,30.50
2019-04-16T09:26:23.671Z,29.11
2019-04-16T09:29:06.436Z,27.97
2019-04-16T09:31:55.450Z,28.39
2019-04-16T09:34:29.497Z,28.80
2019-04-16T09:37:03.526Z,27.17
2019-04-16T09:39:55.957Z,29.67
2019-04-16T09:42:31.170Z,27.54
2019-04-16T09:45:05.807Z,27.71
2019-04-16T09:47:38.297Z,27.28
2019-04-16T09:50:14.182Z,33.12
2019-04-16T09:53:04.440Z,27.86
2019-04-16T09:55:55.416Z,28.34
2019-04-16T09:58:45.221Z,25.44
2019-04-16T10:01:25.436Z,25.65
2019-04-16T10:04:17.318Z,27.29
2019-04-16T10:06:49.796Z,27.60
2019-04-16T10:09:28.026Z,26.50
2019-04-16T10:12:05.051Z,26.80
2019-04-16T10:14:37.021Z,25.98
2019-04-16T10:17:13.451Z,25.22
2019-04-16T10:19:48.557Z,25.74
2019-04-16T10:22:20.796Z,28.75
2019-04-16T10:25:14.916Z,25.85
2019-04-16T10:28:05.877Z,28.56
2019-04-16T10:30:42.776Z,28.24
2019-04-16T10:33:16.321Z,25.58
2019-04-16T10:35:48.855Z,28.31
2019-04-16T10:38:36.841Z,27.43
2019-04-16T10:41:24.009Z,27.96
2019-04-16T10:44:14.302Z,27.38
2019-04-16T10:47:04.778Z,27.10
2019-04-16T10:49:41.709Z,26.97
2019-04-16T10:52:34.947Z,26.20
2019-04-16T10:55:29.237Z,26.69
2019-04-16T10:58:31.046Z,25.87
2019-04-16T11:01:38.819Z,26.30
2019-04-16T11:04:19.657Z,26.43
2019-04-16T11:07:10.796Z,25.32
2019-04-16T11:09:43.576Z,26.91
2019-04-16T11:12:19.740Z,26.99
2019-04-16T11:14:51.549Z,26.49
2019-04-16T11:17:41.456Z,25.46
2019-04-16T11:20:13.891Z,25.23
2019-04-16T11:23:06.872Z,25.85
2019-04-16T11:25:46.346Z,25.21
2019-04-16T11:28:35.918Z,26.53
2019-04-16T11:31:10.672Z,26.99
2019-04-16T11:34:00.407Z,26.70
2019-04-16T11:36:41.998Z,27.28
2019-04-16T11:39:14.482Z,25.48
2019-04-16T11:42:04.601Z,25.24
2019-04-16T11:44:45.972Z,24.24
2019-04-16T11:47:37.953Z,24.39
2019-04-16T11:50:10.193Z,24.80
2019-04-16T11:52:42.677Z,23.08
2019-04-16T11:55:15.196Z,24.30
2019-04-16T11:57:47.711Z,25.85
2019-04-16T12:00:38.722Z,25.63
2019-04-16T12:03:34.894Z,25.15
2019-04-16T12:06:28.533Z,24.16
2019-04-16T12:09:01.773Z,24.29
2019-04-16T12:11:42.838Z,24.78
2019-04-16T12:14:43.642Z,22.87
2019-04-16T12:17:25.254Z,23.56
2019-04-16T12:20:09.334Z,24.20
2019-04-16T12:22:50.614Z,24.57
2019-04-16T12:25:44.994Z,23.89
2019-04-16T12:28:42.295Z,23.47
2019-04-16T12:31:11.699Z,24.46
2019-04-16T12:34:00.262Z,24.29
2019-04-16T12:36:47.449Z,24.32
2019-04-16T12:39:25.860Z,23.34
2019-04-16T12:42:11.432Z,23.08
2019-04-16T12:44:50.980Z,23.54
2019-04-16T12:47:34.152Z,23.72
2019-04-16T12:50:17.472Z,23.85
2019-04-16T12:53:11.866Z,23.54
2019-04-16T12:55:51.774Z,24.11
2019-04-16T12:58:25.928Z,24.42
2019-04-16T13:01:19.739Z,23.66
2019-04-16T13:04:09.932Z,24.01
2019-04-16T13:07:13.951Z,24.60
2019-04-16T13:10:08.134Z,23.44
2019-04-16T13:12:46.131Z,24.42
2019-04-16T13:15:22.807Z,23.07
2019-04-16T13:18:02.551Z,23.92
2019-04-16T13:20:52.932Z,24.33
2019-04-16T13:23:32.792Z,23.70
2019-04-16T13:26:23.059Z,23.15
2019-04-16T13:28:56.282Z,23.61
2019-04-16T13:31:28.987Z,23.88
2019-04-16T13:34:04.539Z,24.08
2019-04-16T13:36:36.892Z,23.69
2019-04-16T13:39:25.228Z,23.84
2019-04-16T13:41:57.656Z,23.13
2019-04-16T13:44:51.127Z,23.73
2019-04-16T13:47:23.863Z,24.28
2019-04-16T13:50:06.686Z,24.29
2019-04-16T13:52:45.446Z,24.06
2019-04-16T13:55:31.826Z,24.07
2019-04-16T13:58:09.242Z,23.96
2019-04-16T14:00:49.489Z,24.30
2019-04-16T14:03:25.013Z,24.32
2019-04-16T14:05:57.812Z,23.92
2019-04-16T14:08:30.628Z,23.48
2019-04-16T14:11:03.544Z,23.77
2019-04-16T14:13:36.501Z,23.73
2019-04-16T14:16:12.714Z,23.98
2019-04-16T14:18:45.182Z,23.69
2019-04-16T14:21:18.162Z,24.31
2019-04-16T14:23:51.461Z,23.78
2019-04-16T14:26:24.163Z,22.64
2019-04-16T14:28:56.980Z,22.38
2019-04-16T14:31:29.561Z,23.87
2019-04-16T14:34:16.002Z,23.66
2019-04-16T14:36:48.582Z,23.84
2019-04-16T14:39:33.066Z,23.59
2019-04-16T14:42:05.946Z,24.14
2019-04-16T14:44:46.062Z,23.31
2019-04-16T14:47:19.031Z,23.79
2019-04-16T14:49:51.702Z,23.87
2019-04-16T14:52:24.617Z,23.97
2019-04-16T14:55:02.018Z,24.33
2019-04-16T14:57:36.421Z,24.22
2019-04-16T15:00:20.905Z,24.42
2019-04-16T15:02:58.282Z,24.44
2019-04-16T15:05:35.551Z,24.18
2019-04-16T15:08:25.242Z,24.50
2019-04-16T15:11:09.597Z,24.48
2019-04-16T15:13:49.892Z,24.55
2019-04-16T15:16:27.134Z,24.65
2019-04-16T15:19:18.288Z,24.94
2019-04-16T15:22:08.729Z,25.05
2019-04-16T15:24:43.267Z,24.70
2019-04-16T15:27:20.236Z,24.85
2019-04-16T15:29:56.478Z,24.55
2019-04-16T15:32:37.832Z,24.54
2019-04-16T15:35:18.478Z,24.29
2019-04-16T15:37:59.256Z,24.57
2019-04-16T15:40:39.286Z,24.33
2019-04-16T15:43:27.116Z,24.49
2019-04-16T15:46:07.157Z,24.74
2019-04-16T15:48:53.887Z,24.90
2019-04-16T15:51:28.471Z,25.11
2019-04-16T15:54:14.486Z,25.03
2019-04-16T15:56:59.357Z,24.76
2019-04-16T15:59:36.943Z,24.59
2019-04-16T16:02:26.932Z,24.43
2019-04-16T16:05:01.298Z,24.72
2019-04-16T16:07:35.092Z,24.76
2019-04-16T16:10:13.686Z,24.63
2019-04-16T16:12:44.561Z,24.81
2019-04-16T16:15:17.303Z,24.66
2019-04-16T16:17:50.001Z,24.95
2019-04-16T16:20:23.176Z,25.00
2019-04-16T16:22:58.395Z,24.73
2019-04-16T16:25:30.446Z,24.58
2019-04-16T16:28:04.106Z,24.99
2019-04-16T16:30:37.097Z,24.79
2019-04-16T16:33:10.192Z,25.01
2019-04-16T16:35:56.947Z,25.05
2019-04-16T16:38:20.636Z,24.99
2019-04-16T16:40:52.321Z,24.97
2019-04-16T16:43:24.892Z,24.74
2019-04-16T16:46:15.552Z,24.99
2019-04-16T16:48:49.309Z,24.92
2019-04-16T16:51:23.091Z,25.07
2019-04-16T16:54:03.574Z,24.98
2019-04-16T16:56:43.882Z,24.88
2019-04-16T16:59:18.551Z,25.15
2019-04-16T17:02:10.362Z,25.12
2019-04-16T17:04:44.767Z,25.38
2019-04-16T17:07:18.053Z,25.56
2019-04-16T17:09:50.927Z,25.40
2019-04-16T17:12:23.780Z,25.44
2019-04-16T17:14:56.587Z,25.64
2019-04-16T17:17:29.281Z,25.75
2019-04-16T17:20:02.171Z,25.98
2019-04-16T17:22:35.184Z,26.21
2019-04-16T17:25:11.701Z,26.23
2019-04-16T17:27:51.036Z,26.44
2019-04-16T17:30:18.085Z,26.54
2019-04-16T17:32:50.837Z,26.96
2019-04-16T17:35:23.803Z,26.72
2019-04-16T17:38:01.549Z,26.64
2019-04-16T17:40:33.205Z,26.78
2019-04-16T17:43:16.713Z,26.97
2019-04-16T17:45:51.078Z,27.13
2019-04-16T17:48:28.879Z,27.25
2019-04-16T17:51:03.492Z,26.86
2019-04-16T17:53:40.792Z,27.31
2019-04-16T17:56:33.772Z,27.27
2019-04-16T17:59:08.355Z,27.26
2019-04-16T18:01:58.699Z,27.35
2019-04-16T18:04:51.845Z,27.44
2019-04-16T18:07:38.521Z,27.74
2019-04-16T18:10:26.721Z,28.81
2019-04-16T18:12:59.047Z,28.96
2019-04-16T18:15:36.228Z,29.39
2019-04-16T18:18:16.950Z,29.29
2019-04-16T18:21:07.087Z,29.56
2019-04-16T18:23:56.902Z,29.76
2019-04-16T18:26:37.532Z,30.10
2019-04-16T18:29:12.687Z,31.18
2019-04-16T18:31:52.518Z,31.40
2019-04-16T18:34:24.482Z,31.06
2019-04-16T18:36:59.632Z,31.40
2019-04-16T18:39:50.312Z,31.73
2019-04-16T18:42:24.837Z,32.36
2019-04-16T18:44:59.256Z,33.36
2019-04-16T18:47:40.022Z,32.96
2019-04-16T18:50:22.182Z,34.03
2019-04-16T18:52:52.392Z,35.08
2019-04-16T18:55:25.122Z,35.20
2019-04-16T18:57:57.906Z,34.57
2019-04-16T19:00:44.652Z,35.24
2019-04-16T19:03:18.156Z,35.14
2019-04-16T19:05:50.976Z,35.17
2019-04-16T19:08:23.752Z,34.62
2019-04-16T19:10:56.508Z,35.47
2019-04-16T19:13:29.175Z,35.32
2019-04-16T19:16:01.972Z,36.02
2019-04-16T19:18:34.627Z,35.51
2019-04-16T19:21:07.796Z,35.96
2019-04-16T19:23:40.396Z,36.71
2019-04-16T19:26:13.332Z,36.10
2019-04-16T19:28:46.065Z,37.43
2019-04-16T19:31:22.846Z,39.09
2019-04-16T19:33:53.184Z,38.28
2019-04-16T19:36:27.489Z,38.67
2019-04-16T19:39:00.336Z,38.36
2019-04-16T19:41:33.421Z,38.40
2019-04-16T19:44:07.836Z,38.44
2019-04-16T19:46:41.166Z,38.47
2019-04-16T19:49:14.046Z,38.59
2019-04-16T19:51:46.942Z,38.95
2019-04-16T19:54:20.012Z,39.52
2019-04-16T19:56:52.823Z,38.94
2019-04-16T19:59:25.727Z,38.95
2019-04-16T20:02:00.251Z,40.38
2019-04-16T20:04:33.598Z,40.02
2019-04-16T20:07:06.946Z,41.20
2019-04-16T20:09:40.151Z,41.67
2019-04-16T20:12:12.818Z,41.71
2019-04-16T20:14:45.651Z,42.24
2019-04-16T20:17:18.427Z,42.70
2019-04-16T20:19:59.312Z,40.88
2019-04-16T20:22:33.187Z,39.92
2019-04-16T20:25:07.304Z,39.20
2019-04-16T20:27:40.813Z,39.75
2019-04-16T20:30:15.007Z,39.05
2019-04-16T20:32:47.971Z,40.00
2019-04-16T20:35:20.704Z,41.05
2019-04-16T20:37:55.054Z,40.19
2019-04-16T20:40:27.806Z,39.60
2019-04-16T20:43:00.496Z,40.94
2019-04-16T20:45:33.501Z,41.37
2019-04-16T20:48:09.122Z,41.28
2019-04-16T20:50:40.752Z,40.87
2019-04-16T20:53:13.206Z,42.08
2019-04-16T20:55:47.425Z,41.68
2019-04-16T20:58:21.599Z,40.71
2019-04-16T21:00:55.833Z,42.32
2019-04-16T21:03:31.048Z,41.77
2019-04-16T21:06:07.448Z,41.46
2019-04-16T21:08:36.826Z,40.54
2019-04-16T21:11:09.820Z,41.45
2019-04-16T21:13:42.756Z,41.67
2019-04-16T21:16:15.711Z,41.88
2019-04-16T21:18:48.272Z,43.02
2019-04-16T21:21:23.468Z,43.06
2019-04-16T21:23:55.419Z,43.79
2019-04-16T21:26:27.961Z,43.21
2019-04-16T21:29:05.054Z,43.02
2019-04-16T21:31:47.015Z,43.96
2019-04-16T21:34:24.253Z,44.67
2019-04-16T21:36:57.591Z,43.73
2019-04-16T21:39:31.732Z,44.28
2019-04-16T21:42:04.262Z,44.12
2019-04-16T21:44:36.999Z,43.12
2019-04-16T21:47:09.531Z,43.45
2019-04-16T21:49:45.061Z,44.05
2019-04-16T21:52:16.736Z,44.13
2019-04-16T21:54:49.036Z,44.68
2019-04-16T21:57:21.753Z,45.40
2019-04-16T21:59:58.101Z,44.97
2019-04-16T22:02:34.598Z,45.63
2019-04-16T22:05:08.972Z,44.85
2019-04-16T22:07:41.551Z,45.23
2019-04-16T22:10:14.275Z,45.45
2019-04-16T22:12:47.684Z,46.33
2019-04-16T22:15:25.205Z,45.60
2019-04-16T22:17:55.919Z,46.11
2019-04-16T22:20:28.520Z,45.14
2019-04-16T22:23:01.306Z,44.70
2019-04-16T22:25:33.901Z,45.86
2019-04-16T22:28:11.747Z,44.71
2019-04-16T22:30:40.681Z,45.45
2019-04-16T22:33:13.461Z,45.96
2019-04-16T22:35:46.016Z,45.10
2019-04-16T22:38:18.771Z,45.67
2019-04-16T22:41:07.776Z,46.24
2019-04-16T22:43:57.977Z,45.73
2019-04-16T22:46:34.723Z,46.68
2019-04-16T22:49:07.416Z,45.93
2019-04-16T22:51:43.228Z,46.56
2019-04-16T22:54:17.635Z,46.51
2019-04-16T22:57:02.557Z,46.96
2019-04-16T22:59:39.123Z,47.19
2019-04-16T23:02:13.799Z,46.30
2019-04-16T23:04:44.986Z,46.73
2019-04-16T23:07:17.576Z,47.04
2019-04-16T23:09:50.331Z,47.08
2019-04-16T23:12:27.177Z,47.58
2019-04-16T23:14:58.481Z,47.53
2019-04-16T23:17:31.151Z,48.17
2019-04-16T23:20:04.691Z,47.86
2019-04-16T23:22:37.101Z,47.99
2019-04-16T23:25:09.860Z,48.91
2019-04-16T23:27:42.581Z,48.78
2019-04-16T23:30:18.512Z,49.83
2019-04-16T23:32:50.506Z,49.42
2019-04-16T23:35:24.990Z,49.93
2019-04-16T23:37:59.502Z,50.07
2019-04-16T23:40:32.396Z,50.45
2019-04-16T23:43:06.541Z,51.23
2019-04-16T23:45:40.562Z,51.25
2019-04-16T23:48:17.453Z,52.27
2019-04-16T23:50:59.111Z,51.90
2019-04-16T23:53:38.122Z,51.98
2019-04-16T23:56:14.466Z,51.71
2019-04-16T23:58:48.647Z,52.66
